Cea Eagle — 3FWZ9 — position and weather

sailwx.info

Track history (hours):
 
Tides and Currents Weather Stations Pressure Air Temp Water Temp Dewpoint Dewpoint Depression Visibility Wind Speed Wind Dir Waves Ship Positions

Cea Eagle

Last reported at 2018-Jan-28 15:47 UTC. Time now 2018-Feb-26 01:35 UTC.
Position N 45°30' E 036°44'.
Warning: this ship's position is 28 days out of date.

Length 228 m.

Type: Ship. MMSI: 351071424.

Date/timePositionNaut miles runAvg speedWind from/ knotsBaromVisibWave heightAir tempDewpointWater temp
2018-Jan-28 15:47N 45°30' E 036°44'4 8.5
2018-Jan-28 15:20N 45°26' E 036°42'3 8.9
2018-Jan-28 15:01N 45°24' E 036°41'4 7.4
2018-Jan-28 14:29N 45°21' E 036°37'5 9.4
2018-Jan-28 14:00N 45°19' E 036°31'4 7.4
2018-Jan-28 13:29N 45°15' E 036°29'3 6.1
2018-Jan-28 13:01N 45°13' E 036°29'2 0.3
2018-Jan-28 07:53N 45°11' E 036°30'0 0.0
2018-Jan-28 07:21N 45°11' E 036°30'0 0.0
2018-Jan-28 06:45N 45°11' E 036°30'0 0.0
2018-Jan-28 03:34N 45°11' E 036°30'0 0.0
2018-Jan-28 03:13N 45°11' E 036°30'0 0.0
2018-Jan-28 02:52N 45°11' E 036°30'0 0.0
2018-Jan-28 02:25N 45°11' E 036°30'  
2018-Jan-23 07:59N 45°09' E 036°29'4 7.6
2018-Jan-23 07:29N 45°12' E 036°28'4 7.4
2018-Jan-23 06:54N 45°17' E 036°28'3 6.8
2018-Jan-23 06:27N 45°19' E 036°32'3 7.6
2018-Jan-23 06:00N 45°20' E 036°36'4 7.1
2018-Jan-23 05:30N 45°22' E 036°40'6 6.2
2018-Jan-23 04:36N 45°28' E 036°41'1 2.7
2018-Jan-23 04:07N 45°29' E 036°39'0 0.0
2018-Jan-23 02:05N 45°29' E 036°39'0 0.1
2018-Jan-23 01:56N 45°29' E 036°39'0 0.1
2018-Jan-23 01:17N 45°29' E 036°39'0 0.0
2018-Jan-23 00:51N 45°29' E 036°39'0 0.0
2018-Jan-23 00:29N 45°29' E 036°39'0 0.0
2018-Jan-23 00:00N 45°29' E 036°39'0 0.0
2018-Jan-22 23:16N 45°29' E 036°39'0 0.0
2018-Jan-22 22:58N 45°29' E 036°39'0 0.8
2018-Jan-22 22:28N 45°29' E 036°40'3 7.0
2018-Jan-22 22:00N 45°32' E 036°42'  
Track history (hours):
 
Tides and Currents Weather Stations Pressure Air Temp Water Temp Dewpoint Dewpoint Depression Visibility Wind Speed Wind Dir Waves Ship Positions

Cea Eagle

Last reported at 2018-Jan-28 15:47 UTC. Time now 2018-Feb-26 01:35 UTC.
Position N 45°30' E 036°44'.
Warning: this ship's position is 28 days out of date.

Length 228 m.

Type: Ship. MMSI: 351071424.

Date/timePositionNaut miles runAvg speedWind from/ knotsBaromVisibWave heightAir tempDewpointWater temp
2018-Jan-28 15:47N 45°30' E 036°44'4 8.5
2018-Jan-28 15:20N 45°26' E 036°42'3 8.9
2018-Jan-28 15:01N 45°24' E 036°41'4 7.4
2018-Jan-28 14:29N 45°21' E 036°37'5 9.4
2018-Jan-28 14:00N 45°19' E 036°31'4 7.4
2018-Jan-28 13:29N 45°15' E 036°29'3 6.1
2018-Jan-28 13:01N 45°13' E 036°29'2 0.3
2018-Jan-28 07:53N 45°11' E 036°30'0 0.0
2018-Jan-28 07:21N 45°11' E 036°30'0 0.0
2018-Jan-28 06:45N 45°11' E 036°30'0 0.0
2018-Jan-28 03:34N 45°11' E 036°30'0 0.0
2018-Jan-28 03:13N 45°11' E 036°30'0 0.0
2018-Jan-28 02:52N 45°11' E 036°30'0 0.0
2018-Jan-28 02:25N 45°11' E 036°30'  
2018-Jan-23 07:59N 45°09' E 036°29'4 7.6
2018-Jan-23 07:29N 45°12' E 036°28'4 7.4
2018-Jan-23 06:54N 45°17' E 036°28'3 6.8
2018-Jan-23 06:27N 45°19' E 036°32'3 7.6
2018-Jan-23 06:00N 45°20' E 036°36'4 7.1
2018-Jan-23 05:30N 45°22' E 036°40'6 6.2
2018-Jan-23 04:36N 45°28' E 036°41'1 2.7
2018-Jan-23 04:07N 45°29' E 036°39'0 0.0
2018-Jan-23 02:05N 45°29' E 036°39'0 0.1
2018-Jan-23 01:56N 45°29' E 036°39'0 0.1
2018-Jan-23 01:17N 45°29' E 036°39'0 0.0
2018-Jan-23 00:51N 45°29' E 036°39'0 0.0
2018-Jan-23 00:29N 45°29' E 036°39'0 0.0
2018-Jan-23 00:00N 45°29' E 036°39'0 0.0
2018-Jan-22 23:16N 45°29' E 036°39'0 0.0
2018-Jan-22 22:58N 45°29' E 036°39'0 0.8
2018-Jan-22 22:28N 45°29' E 036°40'3 7.0
2018-Jan-22 22:00N 45°32' E 036°42'  

Dump ship's entire track history